createdAt,value
2019-03-17T00:01:23.726Z,64.02
2019-03-17T00:03:50.964Z,63.96
2019-03-17T00:06:18.047Z,63.85
2019-03-17T00:08:46.215Z,63.57
2019-03-17T00:11:13.502Z,63.61
2019-03-17T00:13:40.923Z,63.57
2019-03-17T00:16:08.230Z,63.59
2019-03-17T00:18:35.366Z,63.67
2019-03-17T00:21:02.399Z,63.67
2019-03-17T00:23:29.455Z,64.00
2019-03-17T00:25:56.637Z,63.97
2019-03-17T00:28:24.068Z,64.02
2019-03-17T00:30:51.113Z,64.01
2019-03-17T00:33:18.252Z,63.81
2019-03-17T00:35:45.405Z,63.71
2019-03-17T00:38:12.455Z,63.44
2019-03-17T00:40:39.617Z,63.09
2019-03-17T00:43:07.054Z,63.12
2019-03-17T00:45:34.508Z,63.10
2019-03-17T00:48:03.820Z,63.35
2019-03-17T00:50:31.279Z,63.26
2019-03-17T00:52:58.465Z,63.54
2019-03-17T00:55:25.674Z,63.57
2019-03-17T00:57:52.739Z,63.40
2019-03-17T01:00:20.978Z,63.50
2019-03-17T01:02:48.355Z,63.48
2019-03-17T01:05:16.651Z,63.55
2019-03-17T01:07:43.984Z,64.08
2019-03-17T01:10:11.071Z,63.93
2019-03-17T01:12:38.134Z,64.03
2019-03-17T01:15:06.100Z,64.07
2019-03-17T01:17:33.175Z,64.04
2019-03-17T01:20:00.373Z,64.04
2019-03-17T01:22:27.586Z,64.17
2019-03-17T01:24:54.930Z,64.20
2019-03-17T01:27:21.984Z,64.53
2019-03-17T01:29:49.076Z,64.70
2019-03-17T01:32:16.485Z,64.81
2019-03-17T01:34:45.387Z,64.75
2019-03-17T01:37:14.043Z,64.71
2019-03-17T01:39:41.153Z,64.59
2019-03-17T01:42:08.220Z,64.41
2019-03-17T01:44:35.406Z,63.96
2019-03-17T01:47:03.986Z,63.54
2019-03-17T01:49:31.024Z,63.10
2019-03-17T01:51:58.076Z,62.77
2019-03-17T01:54:25.171Z,62.35
2019-03-17T01:56:52.235Z,62.11
2019-03-17T01:59:20.367Z,61.62
2019-03-17T02:01:47.460Z,61.45
2019-03-17T02:04:14.489Z,61.00
2019-03-17T02:06:41.892Z,60.48
2019-03-17T02:09:09.261Z,59.90
2019-03-17T02:11:36.436Z,59.68
2019-03-17T02:14:03.491Z,59.68
2019-03-17T02:16:30.568Z,59.81
2019-03-17T02:18:57.894Z,59.65
2019-03-17T02:21:24.933Z,59.37
2019-03-17T02:23:51.990Z,59.46
2019-03-17T02:26:19.528Z,59.67
2019-03-17T02:28:46.563Z,59.66
2019-03-17T02:31:13.655Z,59.67
2019-03-17T02:33:40.993Z,59.80
2019-03-17T02:36:09.113Z,59.36
2019-03-17T02:38:37.264Z,59.11
2019-03-17T02:41:05.125Z,59.29
2019-03-17T02:43:32.172Z,59.37
2019-03-17T02:46:02.757Z,59.28
2019-03-17T02:48:28.482Z,59.29
2019-03-17T02:50:55.506Z,59.39
2019-03-17T02:53:22.557Z,59.64
2019-03-17T02:55:49.620Z,59.89
2019-03-17T02:58:17.046Z,59.73
2019-03-17T03:00:44.138Z,59.81
2019-03-17T03:03:11.149Z,59.69
2019-03-17T03:05:53.928Z,59.79
2019-03-17T03:08:07.696Z,60.00
2019-03-17T03:10:36.520Z,60.13
2019-03-17T03:13:03.527Z,60.35
2019-03-17T03:15:30.608Z,60.04
2019-03-17T03:17:57.630Z,59.88
2019-03-17T03:20:25.034Z,60.11
2019-03-17T03:22:52.144Z,60.17
2019-03-17T03:25:19.194Z,60.24
2019-03-17T03:27:46.254Z,60.21
2019-03-17T03:30:13.334Z,60.32
2019-03-17T03:32:40.534Z,60.44
2019-03-17T03:35:08.133Z,60.77
2019-03-17T03:37:35.266Z,60.83
2019-03-17T03:40:02.646Z,61.01
2019-03-17T03:42:30.371Z,60.94
2019-03-17T03:45:00.608Z,60.96
2019-03-17T03:47:27.713Z,60.99
2019-03-17T03:49:57.139Z,61.03
2019-03-17T03:52:24.502Z,61.18
2019-03-17T03:54:51.538Z,61.30
2019-03-17T03:57:18.592Z,61.35
2019-03-17T03:59:46.058Z,61.45
2019-03-17T04:02:13.406Z,61.46
2019-03-17T04:04:40.656Z,61.55
2019-03-17T04:07:08.794Z,61.51
2019-03-17T04:09:36.193Z,61.74
2019-03-17T04:12:03.459Z,61.72
2019-03-17T04:14:30.950Z,61.66
2019-03-17T04:16:58.312Z,61.69
2019-03-17T04:19:25.378Z,61.60
2019-03-17T04:21:52.701Z,61.45
2019-03-17T04:24:19.742Z,61.32
2019-03-17T04:26:46.784Z,61.15
2019-03-17T04:29:13.986Z,61.11
2019-03-17T04:31:41.448Z,61.06
2019-03-17T04:34:08.467Z,61.28
2019-03-17T04:36:40.349Z,61.30
2019-03-17T04:39:06.624Z,61.32
2019-03-17T04:41:33.695Z,61.44
2019-03-17T04:44:00.782Z,61.72
2019-03-17T04:46:29.015Z,61.76
2019-03-17T04:48:56.122Z,61.86
2019-03-17T04:51:23.414Z,61.88
2019-03-17T04:53:50.461Z,61.63
2019-03-17T04:56:17.491Z,61.51
2019-03-17T04:58:44.561Z,61.50
2019-03-17T05:01:12.895Z,61.36
2019-03-17T05:03:40.296Z,61.41
2019-03-17T05:06:07.342Z,61.11
2019-03-17T05:08:34.403Z,61.17
2019-03-17T05:11:02.554Z,60.87
2019-03-17T05:13:29.575Z,60.81
2019-03-17T05:15:56.703Z,60.48
2019-03-17T05:18:25.212Z,60.57
2019-03-17T05:20:52.464Z,60.49
2019-03-17T05:23:19.514Z,60.46
2019-03-17T05:25:46.566Z,60.69
2019-03-17T05:28:13.670Z,60.62
2019-03-17T05:30:40.707Z,60.49
2019-03-17T05:33:08.125Z,60.38
2019-03-17T05:35:35.314Z,60.24
2019-03-17T05:38:02.334Z,60.02
2019-03-17T05:40:29.736Z,59.74
2019-03-17T05:42:56.802Z,59.50
2019-03-17T05:45:24.667Z,59.36
2019-03-17T05:47:52.183Z,59.14
2019-03-17T05:50:19.277Z,58.94
2019-03-17T05:52:46.303Z,58.66
2019-03-17T05:55:13.347Z,58.59
2019-03-17T05:57:40.406Z,58.53
2019-03-17T06:00:09.808Z,58.22
2019-03-17T06:02:36.856Z,58.33
2019-03-17T06:05:04.700Z,58.05
2019-03-17T06:07:31.761Z,57.66
2019-03-17T06:09:58.786Z,57.33
2019-03-17T06:12:25.848Z,57.09
2019-03-17T06:14:52.993Z,56.85
2019-03-17T06:17:20.097Z,56.04
2019-03-17T06:19:47.175Z,55.47
2019-03-17T06:22:18.467Z,55.56
2019-03-17T06:24:46.558Z,55.19
2019-03-17T06:27:13.624Z,55.01
2019-03-17T06:29:41.076Z,55.60
2019-03-17T06:32:10.532Z,55.48
2019-03-17T06:34:37.585Z,55.57
2019-03-17T06:37:04.730Z,55.71
2019-03-17T06:39:32.465Z,55.43
2019-03-17T06:41:59.501Z,55.40
2019-03-17T06:44:26.539Z,55.30
2019-03-17T06:46:53.599Z,55.12
2019-03-17T06:49:20.654Z,55.07
2019-03-17T06:51:47.715Z,54.87
2019-03-17T06:54:15.263Z,54.73
2019-03-17T06:56:42.322Z,54.72
2019-03-17T06:59:09.348Z,54.89
2019-03-17T07:01:36.696Z,54.86
2019-03-17T07:04:03.924Z,54.85
2019-03-17T07:06:30.967Z,54.88
2019-03-17T07:08:58.022Z,54.79
2019-03-17T07:11:25.086Z,54.57
2019-03-17T07:13:52.119Z,54.50
2019-03-17T07:16:19.810Z,54.48
2019-03-17T07:18:46.906Z,54.47
2019-03-17T07:21:13.981Z,54.12
2019-03-17T07:23:42.831Z,54.01
2019-03-17T07:26:10.100Z,54.10
2019-03-17T07:28:37.145Z,53.81
2019-03-17T07:31:05.361Z,53.19
2019-03-17T07:33:32.625Z,52.66
2019-03-17T07:35:59.662Z,52.55
2019-03-17T07:38:26.826Z,52.01
2019-03-17T07:40:53.914Z,52.03
2019-03-17T07:43:21.009Z,51.96
2019-03-17T07:45:48.519Z,51.90
2019-03-17T07:48:15.676Z,51.92
2019-03-17T07:50:42.786Z,51.97
2019-03-17T07:53:10.185Z,51.92
2019-03-17T07:55:37.231Z,52.39
2019-03-17T07:58:04.877Z,53.15
2019-03-17T08:00:32.548Z,53.18
2019-03-17T08:03:00.246Z,52.52
2019-03-17T08:05:27.417Z,52.73
2019-03-17T08:07:54.828Z,52.82
2019-03-17T08:10:21.882Z,52.82
2019-03-17T08:12:48.950Z,53.37
2019-03-17T08:15:16.397Z,53.50
2019-03-17T08:17:43.842Z,53.40
2019-03-17T08:20:11.326Z,53.24
2019-03-17T08:22:39.476Z,52.82
2019-03-17T08:25:06.727Z,52.81
2019-03-17T08:27:34.886Z,52.36
2019-03-17T08:30:01.954Z,52.50
2019-03-17T08:32:30.286Z,52.54
2019-03-17T08:34:57.425Z,52.47
2019-03-17T08:37:24.944Z,52.09
2019-03-17T08:39:52.114Z,51.73
2019-03-17T08:42:22.255Z,52.38
2019-03-17T08:44:51.782Z,51.41
2019-03-17T08:47:18.829Z,50.59
2019-03-17T08:49:45.863Z,50.36
2019-03-17T08:52:15.062Z,50.98
2019-03-17T08:54:43.250Z,51.84
2019-03-17T08:57:10.395Z,52.62
2019-03-17T08:59:37.474Z,53.82
2019-03-17T09:02:04.957Z,53.97
2019-03-17T09:04:32.194Z,54.99
2019-03-17T09:06:59.841Z,54.69
2019-03-17T09:09:28.864Z,54.89
2019-03-17T09:11:56.210Z,55.42
2019-03-17T09:14:23.306Z,54.86
2019-03-17T09:16:50.462Z,55.51
2019-03-17T09:19:17.995Z,54.96
2019-03-17T09:21:45.115Z,54.04
2019-03-17T09:24:17.069Z,54.28
2019-03-17T09:26:41.569Z,54.75
2019-03-17T09:29:08.690Z,55.08
2019-03-17T09:31:35.741Z,54.50
2019-03-17T09:34:06.697Z,53.80
2019-03-17T09:36:35.627Z,53.28
2019-03-17T09:39:03.863Z,54.11
2019-03-17T09:41:31.306Z,54.05
2019-03-17T09:43:58.349Z,52.84
2019-03-17T09:46:25.414Z,52.37
2019-03-17T09:48:52.920Z,51.87
2019-03-17T09:51:20.168Z,51.24
2019-03-17T09:53:47.355Z,51.19
2019-03-17T09:56:14.807Z,51.64
2019-03-17T09:58:41.873Z,53.53
2019-03-17T10:01:09.029Z,55.05
2019-03-17T10:03:36.194Z,57.45
2019-03-17T10:06:03.268Z,59.79
2019-03-17T10:08:30.556Z,59.49
2019-03-17T10:10:57.899Z,62.40
2019-03-17T10:13:25.038Z,61.95
2019-03-17T10:15:52.098Z,63.46
2019-03-17T10:18:19.561Z,63.03
2019-03-17T10:20:47.746Z,63.34
2019-03-17T10:23:14.763Z,64.59
2019-03-17T10:25:41.812Z,63.66
2019-03-17T10:28:08.917Z,64.38
2019-03-17T10:30:36.302Z,65.19
2019-03-17T10:33:04.625Z,65.72
2019-03-17T10:35:31.824Z,66.13
2019-03-17T10:37:59.423Z,65.94
2019-03-17T10:40:26.483Z,65.63
2019-03-17T10:42:53.574Z,67.51
2019-03-17T10:45:20.799Z,68.31
2019-03-17T10:47:47.882Z,68.38
2019-03-17T10:50:14.996Z,69.54
2019-03-17T10:52:42.195Z,69.92
2019-03-17T10:55:09.892Z,69.33
2019-03-17T10:57:37.293Z,68.85
2019-03-17T11:00:05.366Z,69.01
2019-03-17T11:02:32.935Z,69.13
2019-03-17T11:05:00.466Z,70.07
2019-03-17T11:07:27.497Z,70.46
2019-03-17T11:09:54.901Z,70.52
2019-03-17T11:12:22.049Z,70.93
2019-03-17T11:14:49.169Z,71.41
2019-03-17T11:17:16.769Z,71.54
2019-03-17T11:19:44.239Z,72.31
2019-03-17T11:22:11.280Z,72.88
2019-03-17T11:24:39.186Z,72.92
2019-03-17T11:27:06.262Z,73.42
2019-03-17T11:29:33.631Z,73.41
2019-03-17T11:32:01.330Z,71.71
2019-03-17T11:34:28.659Z,72.17
2019-03-17T11:36:56.002Z,72.64
2019-03-17T11:39:23.406Z,72.41
2019-03-17T11:41:50.507Z,71.77
2019-03-17T11:44:17.587Z,71.44
2019-03-17T11:46:44.669Z,72.56
2019-03-17T11:49:12.294Z,73.07
2019-03-17T11:51:40.535Z,73.37
2019-03-17T11:54:07.591Z,71.01
2019-03-17T11:56:35.161Z,71.52
2019-03-17T11:59:02.994Z,70.40
2019-03-17T12:01:30.174Z,70.79
2019-03-17T12:03:57.658Z,71.62
2019-03-17T12:06:26.540Z,71.37
2019-03-17T12:08:54.725Z,70.65
2019-03-17T12:11:22.526Z,70.79
2019-03-17T12:13:49.548Z,69.77
2019-03-17T12:16:16.848Z,69.83
2019-03-17T12:18:44.325Z,69.56
2019-03-17T12:21:11.719Z,70.56
2019-03-17T12:23:38.806Z,68.60
2019-03-17T12:26:05.967Z,68.71
2019-03-17T12:28:33.460Z,67.88
2019-03-17T12:31:01.948Z,68.65
2019-03-17T12:33:29.909Z,69.76
2019-03-17T12:35:56.997Z,70.05
2019-03-17T12:38:24.189Z,69.66
2019-03-17T12:40:51.471Z,64.45
2019-03-17T12:43:18.525Z,66.30
2019-03-17T12:45:45.596Z,67.38
2019-03-17T12:48:13.070Z,68.49
2019-03-17T12:50:40.144Z,67.28
2019-03-17T12:53:08.419Z,67.79
2019-03-17T12:55:35.484Z,65.86
2019-03-17T12:58:02.762Z,66.92
2019-03-17T13:00:29.815Z,66.71
2019-03-17T13:02:57.515Z,67.43
2019-03-17T13:05:25.198Z,67.11
2019-03-17T13:07:52.259Z,66.96
2019-03-17T13:10:19.364Z,67.30
2019-03-17T13:12:46.663Z,68.07
2019-03-17T13:15:13.786Z,65.92
2019-03-17T13:17:40.880Z,65.62
2019-03-17T13:20:09.553Z,66.36
2019-03-17T13:22:36.760Z,65.95
2019-03-17T13:25:04.302Z,64.29
2019-03-17T13:27:33.914Z,64.11
2019-03-17T13:30:01.042Z,62.34
2019-03-17T13:32:32.206Z,63.54
2019-03-17T13:34:59.268Z,63.64
2019-03-17T13:37:26.332Z,63.76
2019-03-17T13:39:53.435Z,63.29
2019-03-17T13:42:20.930Z,63.93
2019-03-17T13:44:48.325Z,64.32
2019-03-17T13:47:15.552Z,63.38
2019-03-17T13:49:42.820Z,63.39
2019-03-17T13:52:09.902Z,62.72
2019-03-17T13:54:36.972Z,62.87
2019-03-17T13:57:04.403Z,62.88
2019-03-17T13:59:31.486Z,62.79
2019-03-17T14:01:58.556Z,61.45
2019-03-17T14:04:26.111Z,62.51
2019-03-17T14:06:53.191Z,62.75
2019-03-17T14:09:20.294Z,61.13
2019-03-17T14:11:47.795Z,60.68
2019-03-17T14:14:14.865Z,60.63
2019-03-17T14:16:42.806Z,61.01
2019-03-17T14:19:10.283Z,60.92
2019-03-17T14:21:37.388Z,60.50
2019-03-17T14:24:04.628Z,60.42
2019-03-17T14:26:31.865Z,60.93
2019-03-17T14:28:59.113Z,60.44
2019-03-17T14:31:26.245Z,59.37
2019-03-17T14:33:53.852Z,60.70
2019-03-17T14:36:20.988Z,59.62
2019-03-17T14:38:48.307Z,58.73
2019-03-17T14:41:15.371Z,58.55
2019-03-17T14:43:42.462Z,57.97
2019-03-17T14:46:09.516Z,54.93
2019-03-17T14:48:38.077Z,49.40
2019-03-17T14:51:05.161Z,49.45
2019-03-17T14:53:32.338Z,47.99
2019-03-17T14:55:59.472Z,47.75
2019-03-17T14:58:26.662Z,49.93
2019-03-17T15:00:59.842Z,47.84
2019-03-17T15:03:29.006Z,44.92
2019-03-17T15:05:56.506Z,49.56
2019-03-17T15:08:23.729Z,50.39
2019-03-17T15:10:51.103Z,50.65
2019-03-17T15:13:18.459Z,50.81
2019-03-17T15:15:45.582Z,51.65
2019-03-17T15:18:13.100Z,51.04
2019-03-17T15:20:40.335Z,50.69
2019-03-17T15:23:08.878Z,52.22
2019-03-17T15:25:37.061Z,53.65
2019-03-17T15:28:04.366Z,54.90
2019-03-17T15:30:31.489Z,55.37
2019-03-17T15:32:58.599Z,56.65
2019-03-17T15:35:25.851Z,56.42
2019-03-17T15:37:52.991Z,56.01
2019-03-17T15:40:20.189Z,56.91
2019-03-17T15:42:47.928Z,55.76
2019-03-17T15:45:17.551Z,55.69
2019-03-17T15:47:45.889Z,57.62
2019-03-17T15:50:14.371Z,55.20
2019-03-17T15:52:41.557Z,55.93
2019-03-17T15:55:09.539Z,55.64
2019-03-17T15:57:36.689Z,55.43
2019-03-17T16:00:05.651Z,55.69
2019-03-17T16:02:32.867Z,54.84
2019-03-17T16:05:00.778Z,55.94
2019-03-17T16:07:28.208Z,57.15
2019-03-17T16:09:55.526Z,56.83
2019-03-17T16:12:22.929Z,55.83
2019-03-17T16:14:50.278Z,55.87
2019-03-17T16:17:17.472Z,56.55
2019-03-17T16:19:44.552Z,56.71
2019-03-17T16:22:12.096Z,57.51
2019-03-17T16:24:39.205Z,58.07
2019-03-17T16:27:06.372Z,59.06
2019-03-17T16:29:33.520Z,61.77
2019-03-17T16:32:00.658Z,64.10
2019-03-17T16:34:28.003Z,67.05
2019-03-17T16:36:55.308Z,64.76
2019-03-17T16:39:22.439Z,66.94
2019-03-17T16:41:52.761Z,67.92
2019-03-17T16:44:19.911Z,69.09
2019-03-17T16:46:47.116Z,68.80
2019-03-17T16:49:14.513Z,69.04
2019-03-17T16:51:41.645Z,69.43
2019-03-17T16:54:08.951Z,70.05
2019-03-17T16:56:36.018Z,69.26
2019-03-17T16:59:03.134Z,69.77
2019-03-17T17:01:30.507Z,69.54
2019-03-17T17:03:57.571Z,69.42
2019-03-17T17:06:26.489Z,67.97
2019-03-17T17:08:54.247Z,67.22
2019-03-17T17:11:21.346Z,67.27
2019-03-17T17:13:49.814Z,65.28
2019-03-17T17:16:17.375Z,64.00
2019-03-17T17:18:44.452Z,64.91
2019-03-17T17:21:11.537Z,63.21
2019-03-17T17:23:38.612Z,63.76
2019-03-17T17:26:05.933Z,63.87
2019-03-17T17:28:33.115Z,64.48
2019-03-17T17:31:00.563Z,64.64
2019-03-17T17:33:30.665Z,65.06
2019-03-17T17:35:59.049Z,64.85
2019-03-17T17:38:26.838Z,64.63
2019-03-17T17:40:54.208Z,64.34
2019-03-17T17:43:21.498Z,64.37
2019-03-17T17:45:53.059Z,64.20
2019-03-17T17:48:20.502Z,64.56
2019-03-17T17:50:47.852Z,64.77
2019-03-17T17:53:16.781Z,65.14
2019-03-17T17:55:44.813Z,65.02
2019-03-17T17:58:12.159Z,65.42
2019-03-17T18:00:41.216Z,65.60
2019-03-17T18:03:11.056Z,65.38
2019-03-17T18:05:38.227Z,64.93
2019-03-17T18:08:05.444Z,64.86
2019-03-17T18:10:34.423Z,64.46
2019-03-17T18:13:03.134Z,65.34
2019-03-17T18:15:30.250Z,65.04
2019-03-17T18:17:57.324Z,65.24
2019-03-17T18:20:24.894Z,65.48
2019-03-17T18:22:52.243Z,65.55
2019-03-17T18:25:19.568Z,64.93
2019-03-17T18:27:46.964Z,64.89
2019-03-17T18:30:15.174Z,64.70
2019-03-17T18:32:42.262Z,64.75
2019-03-17T18:35:11.551Z,64.68
2019-03-17T18:37:38.719Z,64.30
2019-03-17T18:40:06.847Z,64.62
2019-03-17T18:42:34.154Z,64.71
2019-03-17T18:45:01.312Z,65.31
2019-03-17T18:47:30.630Z,65.13
2019-03-17T18:49:58.154Z,65.27
2019-03-17T18:52:25.519Z,64.85
2019-03-17T18:54:52.587Z,65.09
2019-03-17T18:57:19.672Z,65.26
2019-03-17T18:59:46.858Z,65.03
2019-03-17T19:02:14.054Z,64.66
2019-03-17T19:04:42.423Z,64.48
2019-03-17T19:07:09.510Z,64.49
2019-03-17T19:09:36.627Z,65.09
2019-03-17T19:12:04.076Z,65.41
2019-03-17T19:14:31.183Z,65.12
2019-03-17T19:16:58.264Z,65.97
2019-03-17T19:19:25.355Z,66.23
2019-03-17T19:21:52.881Z,66.97
2019-03-17T19:24:20.078Z,66.86
2019-03-17T19:26:47.188Z,67.22
2019-03-17T19:29:14.628Z,67.34
2019-03-17T19:31:41.913Z,67.65
2019-03-17T19:34:08.963Z,67.57
2019-03-17T19:36:37.131Z,68.09
2019-03-17T19:39:06.063Z,68.62
2019-03-17T19:41:33.196Z,68.37
2019-03-17T19:44:00.318Z,68.84
2019-03-17T19:46:27.386Z,69.08
2019-03-17T19:48:54.471Z,69.10
2019-03-17T19:51:21.558Z,69.27
2019-03-17T19:53:48.608Z,69.50
2019-03-17T19:56:16.260Z,69.59
2019-03-17T19:58:43.354Z,69.92
2019-03-17T20:01:11.569Z,70.17
2019-03-17T20:03:38.676Z,70.13
2019-03-17T20:06:05.934Z,70.47
2019-03-17T20:08:33.731Z,70.86
2019-03-17T20:11:01.474Z,70.77
2019-03-17T20:13:28.714Z,70.86
2019-03-17T20:15:55.837Z,70.87
2019-03-17T20:18:24.004Z,70.65
2019-03-17T20:20:51.085Z,70.71
2019-03-17T20:23:21.364Z,70.83
2019-03-17T20:25:47.978Z,71.35
2019-03-17T20:28:16.461Z,71.76
2019-03-17T20:30:43.758Z,72.09
2019-03-17T20:33:10.894Z,72.29
2019-03-17T20:35:39.416Z,72.42
2019-03-17T20:38:07.557Z,72.66
2019-03-17T20:40:34.697Z,72.63
2019-03-17T20:43:24.119Z,72.65
2019-03-17T20:45:47.613Z,72.28
2019-03-17T20:48:16.587Z,71.68
2019-03-17T20:50:43.919Z,70.95
2019-03-17T20:53:11.034Z,69.71
2019-03-17T20:55:39.969Z,69.37
2019-03-17T20:58:08.136Z,68.42
2019-03-17T21:00:35.881Z,67.42
2019-03-17T21:03:03.508Z,66.48
2019-03-17T21:05:32.616Z,65.87
2019-03-17T21:08:00.081Z,66.97
2019-03-17T21:10:27.149Z,69.56
2019-03-17T21:12:56.027Z,71.31
2019-03-17T21:15:23.178Z,72.10
2019-03-17T21:17:50.584Z,72.77
2019-03-17T21:20:17.727Z,72.96
2019-03-17T21:22:44.816Z,72.13
2019-03-17T21:25:13.263Z,72.24
2019-03-17T21:27:40.340Z,73.00
2019-03-17T21:30:12.431Z,72.75
2019-03-17T21:32:40.164Z,72.79
2019-03-17T21:35:07.263Z,72.30
2019-03-17T21:37:34.335Z,72.65
2019-03-17T21:40:03.007Z,72.65
2019-03-17T21:42:30.374Z,72.19
2019-03-17T21:44:57.461Z,71.82
2019-03-17T21:47:24.485Z,71.82
2019-03-17T21:49:51.946Z,71.80
2019-03-17T21:52:19.107Z,72.28
2019-03-17T21:54:48.464Z,72.30
2019-03-17T21:57:15.867Z,71.83
2019-03-17T21:59:44.070Z,72.47
2019-03-17T22:02:13.076Z,72.87
2019-03-17T22:04:40.503Z,73.33
2019-03-17T22:07:07.785Z,73.65
2019-03-17T22:09:35.053Z,73.91
2019-03-17T22:12:02.650Z,73.90
2019-03-17T22:14:29.859Z,73.69
2019-03-17T22:16:56.921Z,73.49
2019-03-17T22:19:24.063Z,72.70
2019-03-17T22:22:09.211Z,72.22
2019-03-17T22:25:03.602Z,71.99
2019-03-17T22:27:32.201Z,72.05
2019-03-17T22:29:59.285Z,72.42
2019-03-17T22:32:26.647Z,72.12
2019-03-17T22:34:53.780Z,71.71
2019-03-17T22:37:20.863Z,71.42
2019-03-17T22:39:48.300Z,71.08
2019-03-17T22:42:15.395Z,71.11
2019-03-17T22:44:42.448Z,71.21
2019-03-17T22:47:09.518Z,71.51
2019-03-17T22:49:36.618Z,71.25
2019-03-17T22:52:03.655Z,71.23
2019-03-17T22:54:31.086Z,70.99
2019-03-17T22:56:58.218Z,70.91
2019-03-17T22:59:26.382Z,70.59
2019-03-17T23:01:53.576Z,70.64
2019-03-17T23:04:22.237Z,71.10
2019-03-17T23:06:49.541Z,71.01
2019-03-17T23:09:16.608Z,71.48
2019-03-17T23:11:45.192Z,71.57
2019-03-17T23:14:12.292Z,71.38
2019-03-17T23:16:39.394Z,71.20
2019-03-17T23:19:06.436Z,71.45
2019-03-17T23:21:33.975Z,71.88
2019-03-17T23:24:01.248Z,71.88
2019-03-17T23:26:28.441Z,71.88
2019-03-17T23:28:55.703Z,72.02
2019-03-17T23:31:22.746Z,72.10
2019-03-17T23:33:49.831Z,72.32
2019-03-17T23:36:16.900Z,72.63
2019-03-17T23:38:57.583Z,72.57
2019-03-17T23:41:36.606Z,72.58
2019-03-17T23:44:04.359Z,72.33
2019-03-17T23:46:31.385Z,72.56
2019-03-17T23:48:58.469Z,72.84
2019-03-17T23:51:27.308Z,72.70
2019-03-17T23:53:54.382Z,72.57
2019-03-17T23:56:21.384Z,72.54
2019-03-17T23:58:49.796Z,72.72
